createdAt,value
2022-08-18T00:00:10.995Z,63.28
2022-08-18T00:01:10.273Z,63.28
2022-08-18T00:02:10.345Z,62.58
2022-08-18T00:03:53.270Z,62.58
2022-08-18T00:04:33.122Z,62.31
2022-08-18T00:05:10.232Z,61.38
2022-08-18T00:06:10.221Z,61.61
2022-08-18T00:07:10.210Z,61.28
2022-08-18T00:08:10.200Z,61.11
2022-08-18T00:09:10.187Z,60.41
2022-08-18T00:10:17.933Z,60.61
2022-08-18T00:11:10.164Z,59.91
2022-08-18T00:12:10.155Z,60.31
2022-08-18T00:13:10.142Z,59.20
2022-08-18T00:14:10.134Z,58.70
2022-08-18T00:15:10.122Z,57.93
2022-08-18T00:16:10.110Z,57.83
2022-08-18T00:17:10.099Z,57.83
2022-08-18T00:18:10.090Z,57.13
2022-08-18T00:19:10.082Z,57.33
2022-08-18T00:20:10.070Z,56.73
2022-08-18T00:21:10.055Z,55.93
2022-08-18T00:22:14.863Z,55.35
2022-08-18T00:23:10.032Z,55.13
2022-08-18T00:24:10.024Z,54.43
2022-08-18T00:25:10.014Z,54.35
2022-08-18T00:26:10.004Z,55.05
2022-08-18T00:27:09.991Z,54.45
2022-08-18T00:28:09.982Z,53.85
2022-08-18T00:29:09.969Z,53.64
2022-08-18T00:30:09.959Z,51.97
2022-08-18T00:31:10.045Z,51.06
2022-08-18T00:32:09.938Z,51.46
2022-08-18T00:33:09.925Z,50.76
2022-08-18T00:34:09.916Z,50.66
2022-08-18T00:35:09.905Z,51.44
2022-08-18T00:36:09.897Z,51.34
2022-08-18T00:37:09.882Z,51.44
2022-08-18T00:38:24.428Z,51.46
2022-08-18T00:39:10.885Z,51.87
2022-08-18T00:40:09.917Z,49.96
2022-08-18T00:41:09.839Z,49.76
2022-08-18T00:42:09.831Z,48.35
2022-08-18T00:43:09.818Z,48.46
2022-08-18T00:44:09.809Z,47.55
2022-08-18T00:45:09.797Z,48.55
2022-08-18T00:46:09.788Z,45.95
2022-08-18T00:47:09.775Z,45.37
2022-08-18T00:48:09.764Z,44.76
2022-08-18T00:49:09.753Z,45.57
2022-08-18T00:50:11.741Z,45.17
2022-08-18T00:51:09.735Z,44.36
2022-08-18T00:52:09.718Z,44.56
2022-08-18T00:53:09.709Z,42.55
2022-08-18T00:54:09.698Z,43.16
2022-08-18T00:55:09.687Z,43.46
2022-08-18T00:56:11.471Z,43.76
2022-08-18T00:57:09.664Z,43.26
2022-08-18T00:58:09.653Z,41.67
2022-08-18T00:59:09.642Z,41.65
2022-08-18T01:00:10.350Z,40.75
2022-08-18T01:01:09.750Z,39.64
2022-08-18T01:02:09.611Z,40.65
2022-08-18T01:03:09.596Z,39.47
2022-08-18T01:04:09.584Z,40.87
2022-08-18T01:05:09.576Z,40.47
2022-08-18T01:06:09.561Z,41.37
2022-08-18T01:07:09.553Z,38.86
2022-08-18T01:08:09.539Z,39.56
2022-08-18T01:09:09.529Z,38.66
2022-08-18T01:10:09.518Z,38.26
2022-08-18T01:11:09.506Z,39.06
2022-08-18T01:12:42.021Z,39.26
2022-08-18T01:13:10.506Z,37.76
2022-08-18T01:14:09.530Z,37.05
2022-08-18T01:15:09.460Z,32.84
2022-08-18T01:16:09.447Z,32.84
2022-08-18T01:17:09.439Z,32.53
2022-08-18T01:18:09.422Z,31.33
2022-08-18T01:19:09.415Z,30.73
2022-08-18T01:20:09.402Z,31.13
2022-08-18T01:21:09.390Z,31.53
2022-08-18T01:22:09.379Z,31.13
2022-08-18T01:23:09.366Z,31.41
2022-08-18T01:24:09.356Z,30.93
2022-08-18T01:25:09.346Z,31.21
2022-08-18T01:26:09.405Z,30.43
2022-08-18T01:27:09.321Z,30.41
2022-08-18T01:28:09.308Z,30.52
2022-08-18T01:29:09.301Z,30.51
2022-08-18T01:30:09.287Z,30.01
2022-08-18T01:31:09.278Z,29.81
2022-08-18T01:32:09.264Z,29.21
2022-08-18T01:33:09.260Z,29.61
2022-08-18T01:34:09.242Z,29.81
2022-08-18T01:35:09.233Z,30.21
2022-08-18T01:36:09.217Z,30.71
2022-08-18T01:37:09.205Z,31.12
2022-08-18T01:38:09.194Z,31.31
2022-08-18T01:39:09.183Z,31.01
2022-08-18T01:41:11.166Z,31.21
2022-08-18T01:41:28.893Z,30.61
2022-08-18T01:42:10.242Z,30.51
2022-08-18T01:43:09.140Z,29.61
2022-08-18T01:44:09.126Z,29.61
2022-08-18T01:45:09.115Z,29.41
2022-08-18T01:46:09.106Z,29.11
2022-08-18T01:47:09.093Z,29.11
2022-08-18T01:48:09.080Z,29.21
2022-08-18T01:49:09.071Z,29.50
2022-08-18T01:50:09.059Z,29.21
2022-08-18T01:51:09.047Z,29.61
2022-08-18T01:52:09.038Z,29.91
2022-08-18T01:53:09.025Z,29.31
2022-08-18T01:54:09.014Z,29.31
2022-08-18T01:55:09.005Z,29.31
2022-08-18T01:56:08.992Z,28.80
2022-08-18T01:57:08.982Z,29.21
2022-08-18T01:58:08.972Z,29.21
2022-08-18T01:59:08.961Z,29.50
2022-08-18T02:00:08.947Z,29.31
2022-08-18T02:01:08.940Z,29.81
2022-08-18T02:02:09.041Z,29.79
2022-08-18T02:03:08.916Z,30.31
2022-08-18T02:04:33.795Z,29.71
2022-08-18T02:05:09.918Z,29.91
2022-08-18T02:06:08.882Z,30.30
2022-08-18T02:07:08.879Z,30.61
2022-08-18T02:08:08.859Z,30.69
2022-08-18T02:09:08.849Z,31.20
2022-08-18T02:10:12.008Z,31.50
2022-08-18T02:11:08.830Z,31.40
2022-08-18T02:12:08.818Z,30.90
2022-08-18T02:13:08.806Z,31.60
2022-08-18T02:14:08.794Z,31.30
2022-08-18T02:15:08.783Z,31.40
2022-08-18T02:16:08.772Z,31.60
2022-08-18T02:17:08.771Z,31.60
2022-08-18T02:18:08.748Z,31.70
2022-08-18T02:19:08.745Z,32.20
2022-08-18T02:20:08.731Z,32.00
2022-08-18T02:21:10.335Z,31.70
2022-08-18T02:22:08.706Z,31.20
2022-08-18T02:23:08.698Z,31.60
2022-08-18T02:24:08.685Z,31.70
2022-08-18T02:25:08.681Z,32.40
2022-08-18T02:26:08.664Z,32.00
2022-08-18T02:27:08.655Z,31.70
2022-08-18T02:28:08.642Z,32.40
2022-08-18T02:29:08.634Z,32.40
2022-08-18T02:30:08.622Z,32.30
2022-08-18T02:31:08.612Z,32.40
2022-08-18T02:32:08.599Z,32.40
2022-08-18T02:33:08.590Z,32.40
2022-08-18T02:34:08.578Z,32.40
2022-08-18T02:35:11.958Z,32.81
2022-08-18T02:36:08.558Z,33.20
2022-08-18T02:37:13.118Z,33.40
2022-08-18T02:38:09.563Z,33.61
2022-08-18T02:39:08.537Z,34.01
2022-08-18T02:40:08.591Z,34.11
2022-08-18T02:41:08.507Z,33.81
2022-08-18T02:42:08.494Z,33.40
2022-08-18T02:43:08.485Z,33.51
2022-08-18T02:44:08.481Z,33.20
2022-08-18T02:45:08.467Z,33.31
2022-08-18T02:46:08.458Z,33.51
2022-08-18T02:47:08.439Z,33.51
2022-08-18T02:48:08.427Z,33.51
2022-08-18T02:49:08.421Z,33.51
2022-08-18T02:50:08.405Z,33.51
2022-08-18T02:51:08.398Z,34.01
2022-08-18T02:52:08.394Z,34.11
2022-08-18T02:53:08.379Z,33.81
2022-08-18T02:54:08.367Z,34.11
2022-08-18T02:55:08.358Z,34.31
2022-08-18T02:56:08.341Z,34.31
2022-08-18T02:57:08.334Z,34.51
2022-08-18T02:58:08.319Z,34.61
2022-08-18T02:59:08.310Z,34.71
2022-08-18T03:00:08.298Z,34.31
2022-08-18T03:01:08.314Z,34.31
2022-08-18T03:02:08.276Z,34.11
2022-08-18T03:03:08.273Z,33.71
2022-08-18T03:04:08.278Z,33.51
2022-08-18T03:05:08.246Z,33.40
2022-08-18T03:06:09.260Z,33.31
2022-08-18T03:07:08.227Z,33.51
2022-08-18T03:08:08.211Z,33.81
2022-08-18T03:09:08.202Z,34.31
2022-08-18T03:10:33.329Z,34.21
2022-08-18T03:11:08.184Z,34.31
2022-08-18T03:12:08.168Z,34.19
2022-08-18T03:13:08.158Z,33.99
2022-08-18T03:14:08.699Z,34.51
2022-08-18T03:15:08.138Z,34.69
2022-08-18T03:16:08.127Z,34.21
2022-08-18T03:17:08.117Z,34.01
2022-08-18T03:18:08.102Z,35.11
2022-08-18T03:19:08.097Z,35.21
2022-08-18T03:20:08.083Z,35.41
2022-08-18T03:21:08.078Z,35.61
2022-08-18T03:22:16.103Z,34.81
2022-08-18T03:23:10.095Z,34.91
2022-08-18T03:24:09.095Z,35.01
2022-08-18T03:25:08.031Z,35.01
2022-08-18T03:26:08.022Z,34.91
2022-08-18T03:27:08.015Z,35.91
2022-08-18T03:28:07.995Z,36.72
2022-08-18T03:29:07.985Z,36.41
2022-08-18T03:30:11.372Z,36.21
2022-08-18T03:31:07.965Z,36.52
2022-08-18T03:32:07.953Z,36.21
2022-08-18T03:33:07.943Z,35.91
2022-08-18T03:34:07.933Z,36.02
2022-08-18T03:35:07.921Z,36.11
2022-08-18T03:36:07.919Z,36.52
2022-08-18T03:37:07.903Z,36.41
2022-08-18T03:38:07.886Z,36.32
2022-08-18T03:39:07.880Z,36.72
2022-08-18T03:40:07.973Z,36.11
2022-08-18T03:41:07.870Z,36.41
2022-08-18T03:42:07.846Z,37.62
2022-08-18T03:43:50.134Z,38.12
2022-08-18T03:44:08.855Z,38.42
2022-08-18T03:45:17.313Z,38.62
2022-08-18T03:46:07.802Z,38.32
2022-08-18T03:47:07.798Z,38.12
2022-08-18T03:48:07.788Z,38.22
2022-08-18T03:49:07.771Z,38.32
2022-08-18T03:50:07.756Z,38.22
2022-08-18T03:51:07.753Z,37.82
2022-08-18T03:52:07.735Z,37.72
2022-08-18T03:53:07.726Z,37.42
2022-08-18T03:54:07.712Z,37.62
2022-08-18T03:55:07.709Z,37.72
2022-08-18T03:56:07.708Z,37.82
2022-08-18T03:57:07.682Z,37.72
2022-08-18T03:58:07.670Z,37.82
2022-08-18T03:59:07.663Z,38.12
2022-08-18T04:00:14.415Z,37.82
2022-08-18T04:01:07.691Z,37.82
2022-08-18T04:02:07.629Z,37.92
2022-08-18T04:03:07.624Z,38.22
2022-08-18T04:04:07.613Z,38.02
2022-08-18T04:05:07.598Z,37.82
2022-08-18T04:06:12.145Z,37.62
2022-08-18T04:07:07.578Z,37.22
2022-08-18T04:08:07.578Z,37.22
2022-08-18T04:09:07.859Z,37.62
2022-08-18T04:10:07.645Z,37.92
2022-08-18T04:11:07.531Z,37.72
2022-08-18T04:12:07.561Z,37.62
2022-08-18T04:13:07.525Z,38.02
2022-08-18T04:14:07.500Z,38.32
2022-08-18T04:15:07.492Z,38.32
2022-08-18T04:16:07.478Z,37.92
2022-08-18T04:17:07.516Z,37.82
2022-08-18T04:18:07.986Z,37.72
2022-08-18T04:19:07.449Z,37.32
2022-08-18T04:20:07.437Z,37.62
2022-08-18T04:21:07.426Z,37.42
2022-08-18T04:22:07.415Z,37.42
2022-08-18T04:23:07.401Z,37.42
2022-08-18T04:24:07.432Z,37.22
2022-08-18T04:25:07.381Z,37.12
2022-08-18T04:26:07.373Z,37.02
2022-08-18T04:27:07.361Z,37.12
2022-08-18T04:28:07.351Z,37.52
2022-08-18T04:29:07.337Z,37.52
2022-08-18T04:30:07.326Z,37.52
2022-08-18T04:31:10.275Z,37.42
2022-08-18T04:32:07.307Z,37.12
2022-08-18T04:33:07.297Z,37.22
2022-08-18T04:34:07.282Z,37.72
2022-08-18T04:35:10.081Z,37.22
2022-08-18T04:36:07.262Z,37.72
2022-08-18T04:37:07.247Z,37.42
2022-08-18T04:38:07.249Z,39.03
2022-08-18T04:39:07.228Z,39.83
2022-08-18T04:40:07.300Z,38.72
2022-08-18T04:41:07.205Z,38.72
2022-08-18T04:42:07.217Z,39.11
2022-08-18T04:43:07.182Z,38.51
2022-08-18T04:44:07.173Z,37.90
2022-08-18T04:45:07.162Z,38.12
2022-08-18T04:46:07.153Z,37.70
2022-08-18T04:47:07.140Z,37.80
2022-08-18T04:48:07.129Z,37.62
2022-08-18T04:49:07.119Z,37.60
2022-08-18T04:50:07.109Z,38.02
2022-08-18T04:51:07.101Z,37.32
2022-08-18T04:52:38.749Z,37.22
2022-08-18T04:53:08.101Z,36.72
2022-08-18T04:54:07.070Z,36.41
2022-08-18T04:55:07.052Z,36.02
2022-08-18T04:56:07.045Z,35.41
2022-08-18T04:57:07.032Z,34.81
2022-08-18T04:58:07.024Z,34.91
2022-08-18T04:59:07.010Z,34.41
2022-08-18T05:00:06.999Z,34.31
2022-08-18T05:01:07.066Z,34.11
2022-08-18T05:02:09.371Z,34.41
2022-08-18T05:03:07.142Z,34.91
2022-08-18T05:04:07.014Z,35.11
2022-08-18T05:05:06.963Z,34.51
2022-08-18T05:06:06.933Z,34.42
2022-08-18T05:07:06.926Z,34.02
2022-08-18T05:08:06.912Z,35.43
2022-08-18T05:09:06.901Z,33.42
2022-08-18T05:10:06.896Z,33.32
2022-08-18T05:11:06.880Z,33.22
2022-08-18T05:12:06.870Z,32.62
2022-08-18T05:13:06.866Z,32.21
2022-08-18T05:14:06.849Z,31.92
2022-08-18T05:15:06.842Z,31.62
2022-08-18T05:16:11.625Z,32.42
2022-08-18T05:17:06.817Z,31.71
2022-08-18T05:18:06.819Z,32.12
2022-08-18T05:19:06.797Z,32.12
2022-08-18T05:20:06.784Z,32.52
2022-08-18T05:21:06.771Z,32.21
2022-08-18T05:22:06.760Z,33.12
2022-08-18T05:23:06.751Z,33.02
2022-08-18T05:24:06.742Z,33.22
2022-08-18T05:25:06.727Z,33.32
2022-08-18T05:26:06.717Z,33.02
2022-08-18T05:27:06.706Z,33.52
2022-08-18T05:28:06.697Z,33.83
2022-08-18T05:29:18.735Z,33.42
2022-08-18T05:30:06.677Z,33.62
2022-08-18T05:31:10.581Z,33.12
2022-08-18T05:32:07.678Z,33.12
2022-08-18T05:33:06.650Z,33.00
2022-08-18T05:34:06.708Z,34.22
2022-08-18T05:35:06.622Z,32.52
2022-08-18T05:36:06.648Z,32.12
2022-08-18T05:37:06.652Z,31.92
2022-08-18T05:38:06.721Z,32.10
2022-08-18T05:39:06.667Z,32.52
2022-08-18T05:40:11.021Z,31.80
2022-08-18T05:41:06.730Z,32.32
2022-08-18T05:42:06.700Z,32.42
2022-08-18T05:43:06.573Z,32.40
2022-08-18T05:44:06.529Z,32.60
2022-08-18T05:45:06.523Z,33.83
2022-08-18T05:46:06.509Z,33.91
2022-08-18T05:47:06.535Z,33.81
2022-08-18T05:48:06.483Z,34.21
2022-08-18T05:49:06.469Z,35.91
2022-08-18T05:50:06.458Z,34.71
2022-08-18T05:51:06.447Z,35.21
2022-08-18T05:52:06.436Z,36.02
2022-08-18T05:53:12.564Z,36.92
2022-08-18T05:54:06.414Z,37.72
2022-08-18T05:55:06.406Z,38.10
2022-08-18T05:56:06.394Z,38.10
2022-08-18T05:57:06.393Z,37.40
2022-08-18T05:58:06.370Z,39.01
2022-08-18T05:59:06.362Z,39.40
2022-08-18T06:00:06.360Z,39.40
2022-08-18T06:01:06.348Z,40.51
2022-08-18T06:02:06.327Z,40.21
2022-08-18T06:03:06.378Z,39.91
2022-08-18T06:04:06.307Z,40.91
2022-08-18T06:05:06.299Z,41.82
2022-08-18T06:06:06.286Z,42.21
2022-08-18T06:07:06.277Z,42.60
2022-08-18T06:08:06.260Z,42.30
2022-08-18T06:09:06.252Z,42.60
2022-08-18T06:10:06.242Z,42.49
2022-08-18T06:11:06.275Z,43.19
2022-08-18T06:12:07.404Z,43.90
2022-08-18T06:13:06.214Z,44.70
2022-08-18T06:14:06.206Z,44.80
2022-08-18T06:15:06.329Z,44.78
2022-08-18T06:16:06.174Z,45.28
2022-08-18T06:17:06.162Z,47.88
2022-08-18T06:18:06.151Z,48.79
2022-08-18T06:19:06.144Z,49.69
2022-08-18T06:20:06.131Z,49.19
2022-08-18T06:21:06.121Z,48.66
2022-08-18T06:22:06.111Z,49.37
2022-08-18T06:23:06.103Z,51.27
2022-08-18T06:24:06.086Z,51.46
2022-08-18T06:25:06.084Z,52.27
2022-08-18T06:26:06.077Z,52.97
2022-08-18T06:27:06.084Z,52.17
2022-08-18T06:28:06.044Z,52.57
2022-08-18T06:29:06.033Z,52.77
2022-08-18T06:30:06.021Z,53.05
2022-08-18T06:31:06.020Z,54.55
2022-08-18T06:32:06.000Z,54.35
2022-08-18T06:33:05.995Z,55.05
2022-08-18T06:34:05.978Z,55.05
2022-08-18T06:35:05.969Z,56.45
2022-08-18T06:36:05.957Z,57.45
2022-08-18T06:37:05.949Z,55.94
2022-08-18T06:38:05.935Z,55.94
2022-08-18T06:39:05.934Z,57.62
2022-08-18T06:40:05.967Z,58.02
2022-08-18T06:41:05.906Z,59.49
2022-08-18T06:42:05.937Z,60.19
2022-08-18T06:43:05.914Z,61.99
2022-08-18T06:44:05.871Z,62.37
2022-08-18T06:45:05.860Z,63.09
2022-08-18T06:46:05.862Z,62.29
2022-08-18T06:47:05.842Z,62.39
2022-08-18T06:48:05.834Z,64.26
2022-08-18T06:49:05.824Z,65.13
2022-08-18T06:50:05.820Z,67.10
2022-08-18T06:51:05.799Z,69.96
2022-08-18T06:52:05.784Z,74.98
2022-08-18T06:53:05.772Z,75.24
2022-08-18T06:54:05.760Z,76.70
2022-08-18T06:55:05.751Z,78.39
2022-08-18T06:56:05.744Z,79.09
2022-08-18T06:57:05.758Z,77.50
2022-08-18T06:58:05.733Z,78.23
2022-08-18T06:59:05.709Z,77.37
2022-08-18T07:00:05.697Z,75.81
2022-08-18T07:01:05.772Z,74.11
2022-08-18T07:02:05.815Z,74.11
2022-08-18T07:03:05.670Z,71.95
2022-08-18T07:04:05.658Z,70.29
2022-08-18T07:05:05.649Z,70.09
2022-08-18T07:06:05.640Z,70.59
2022-08-18T07:07:05.626Z,70.86
2022-08-18T07:08:05.616Z,68.40
2022-08-18T07:09:05.658Z,69.29
2022-08-18T07:10:05.595Z,70.46
2022-08-18T07:11:05.586Z,71.06
2022-08-18T07:12:05.588Z,71.86
2022-08-18T07:13:05.572Z,71.66
2022-08-18T07:14:16.127Z,70.56
2022-08-18T07:15:05.542Z,71.49
2022-08-18T07:16:05.532Z,68.79
2022-08-18T07:17:05.522Z,68.49
2022-08-18T07:18:05.510Z,67.40
2022-08-18T07:19:05.503Z,66.39
2022-08-18T07:20:05.488Z,67.19
2022-08-18T07:21:05.481Z,66.89
2022-08-18T07:22:05.619Z,68.10
2022-08-18T07:23:07.954Z,69.09
2022-08-18T07:24:23.643Z,67.60
2022-08-18T07:25:06.459Z,67.60
2022-08-18T07:26:05.420Z,69.79
2022-08-18T07:27:05.417Z,70.46
2022-08-18T07:28:05.404Z,70.56
2022-08-18T07:29:05.391Z,70.06
2022-08-18T07:30:05.378Z,70.95
2022-08-18T07:31:16.487Z,71.75
2022-08-18T07:32:06.381Z,71.92
2022-08-18T07:33:05.350Z,71.92
2022-08-18T07:34:05.361Z,73.72
2022-08-18T07:35:05.340Z,73.48
2022-08-18T07:36:05.326Z,75.11
2022-08-18T07:37:05.307Z,74.62
2022-08-18T07:38:24.651Z,75.81
2022-08-18T07:39:05.285Z,74.11
2022-08-18T07:40:05.394Z,73.91
2022-08-18T07:41:05.263Z,73.32
2022-08-18T07:42:05.251Z,73.05
2022-08-18T07:43:05.242Z,73.82
2022-08-18T07:44:07.575Z,72.81
2022-08-18T07:45:05.224Z,74.11
2022-08-18T07:46:05.217Z,73.72
2022-08-18T07:47:05.208Z,74.02
2022-08-18T07:48:15.779Z,74.02
2022-08-18T07:49:05.565Z,74.91
2022-08-18T07:50:27.071Z,74.41
2022-08-18T07:51:08.461Z,74.32
2022-08-18T07:52:05.150Z,74.11
2022-08-18T07:53:05.139Z,73.42
2022-08-18T07:54:05.126Z,74.11
2022-08-18T07:55:05.120Z,74.62
2022-08-18T07:56:05.106Z,74.32
2022-08-18T07:57:05.096Z,74.02
2022-08-18T07:58:05.084Z,73.61
2022-08-18T07:59:05.085Z,74.77
2022-08-18T08:00:05.061Z,74.58
2022-08-18T08:01:05.055Z,75.37
2022-08-18T08:02:05.080Z,75.37
2022-08-18T08:03:05.034Z,74.48
2022-08-18T08:04:05.018Z,75.11
2022-08-18T08:05:05.011Z,73.35
2022-08-18T08:06:05.003Z,72.75
2022-08-18T08:07:24.550Z,73.02
2022-08-18T08:08:06.003Z,73.78
2022-08-18T08:09:05.015Z,76.54
2022-08-18T08:10:04.987Z,78.45
2022-08-18T08:11:05.577Z,80.90
2022-08-18T08:12:04.938Z,83.77
2022-08-18T08:13:09.345Z,85.87
2022-08-18T08:14:04.914Z,87.40
2022-08-18T08:15:04.905Z,86.51
2022-08-18T08:16:04.894Z,86.25
2022-08-18T08:17:04.887Z,85.30
2022-08-18T08:18:04.872Z,84.80
2022-08-18T08:19:12.262Z,83.35
2022-08-18T08:20:05.876Z,82.64
2022-08-18T08:21:04.861Z,81.24
2022-08-18T08:22:04.893Z,80.24
2022-08-18T08:23:05.026Z,79.49
2022-08-18T08:24:04.821Z,79.49
2022-08-18T08:25:10.750Z,78.63
2022-08-18T08:26:04.792Z,78.89
2022-08-18T08:27:04.782Z,79.75
2022-08-18T08:28:04.768Z,80.35
2022-08-18T08:29:04.759Z,80.30
2022-08-18T08:30:04.752Z,80.21
2022-08-18T08:31:25.485Z,83.05
2022-08-18T08:32:05.755Z,83.81
2022-08-18T08:33:04.723Z,84.47
2022-08-18T08:34:06.117Z,85.02
2022-08-18T08:35:04.691Z,86.01
2022-08-18T08:36:04.677Z,86.80
2022-08-18T08:37:04.678Z,86.31
2022-08-18T08:38:36.723Z,86.71
2022-08-18T08:39:04.658Z,86.01
2022-08-18T08:40:04.759Z,86.01
2022-08-18T08:41:04.628Z,86.21
2022-08-18T08:42:31.005Z,85.36
2022-08-18T08:43:04.606Z,85.75
2022-08-18T08:44:04.598Z,84.50
2022-08-18T08:45:04.593Z,83.25
2022-08-18T08:46:04.571Z,82.20
2022-08-18T08:47:04.563Z,81.04
2022-08-18T08:48:09.259Z,79.55
2022-08-18T08:49:04.541Z,79.85
2022-08-18T08:50:04.530Z,78.99
2022-08-18T08:51:04.527Z,78.59
2022-08-18T08:52:04.509Z,77.69
2022-08-18T08:53:04.648Z,76.64
2022-08-18T08:54:04.504Z,76.83
2022-08-18T08:55:04.576Z,78.23
2022-08-18T08:56:04.768Z,77.69
2022-08-18T08:57:04.454Z,78.29
2022-08-18T08:58:04.499Z,79.99
2022-08-18T08:59:04.436Z,80.54
2022-08-18T09:00:04.424Z,80.71
2022-08-18T09:01:04.414Z,82.29
2022-08-18T09:02:04.537Z,81.60
2022-08-18T09:03:04.391Z,82.35
2022-08-18T09:04:04.383Z,83.45
2022-08-18T09:05:08.352Z,83.85
2022-08-18T09:06:04.360Z,83.95
2022-08-18T09:07:04.352Z,83.15
2022-08-18T09:08:04.338Z,82.50
2022-08-18T09:09:04.330Z,82.10
2022-08-18T09:10:04.447Z,82.95
2022-08-18T09:11:04.580Z,83.61
2022-08-18T09:12:04.295Z,84.47
2022-08-18T09:13:04.288Z,85.96
2022-08-18T09:14:04.275Z,86.21
2022-08-18T09:15:04.267Z,85.52
2022-08-18T09:16:12.355Z,86.72
2022-08-18T09:17:04.244Z,87.32
2022-08-18T09:18:04.234Z,87.42
2022-08-18T09:19:04.227Z,88.41
2022-08-18T09:20:04.210Z,87.71
2022-08-18T09:21:04.202Z,87.36
2022-08-18T09:22:04.189Z,86.87
2022-08-18T09:23:04.200Z,86.11
2022-08-18T09:24:04.372Z,86.01
2022-08-18T09:25:04.166Z,86.51
2022-08-18T09:26:04.151Z,86.71
2022-08-18T09:27:04.135Z,87.18
2022-08-18T09:28:10.841Z,89.33
2022-08-18T09:29:05.152Z,90.15
2022-08-18T09:30:04.110Z,89.32
2022-08-18T09:31:04.095Z,88.06
2022-08-18T09:32:04.086Z,85.75
2022-08-18T09:33:04.076Z,84.37
2022-08-18T09:34:07.414Z,80.38
2022-08-18T09:35:05.452Z,80.91
2022-08-18T09:36:04.048Z,83.34
2022-08-18T09:37:04.050Z,82.12
2022-08-18T09:38:04.023Z,76.90
2022-08-18T09:39:04.224Z,80.17
2022-08-18T09:41:05.364Z,84.59
2022-08-18T09:42:04.021Z,82.83
2022-08-18T09:43:04.275Z,77.98
2022-08-18T09:44:04.011Z,73.32
2022-08-18T09:46:05.268Z,68.17
2022-08-18T09:47:04.217Z,68.56
2022-08-18T09:48:04.220Z,72.86
2022-08-18T09:49:04.222Z,73.85
2022-08-18T09:50:04.193Z,79.68
2022-08-18T09:51:03.911Z,83.66
2022-08-18T09:52:03.907Z,86.07
2022-08-18T09:54:05.859Z,89.60
2022-08-18T09:55:03.857Z,90.18
2022-08-18T09:56:05.332Z,90.42
2022-08-18T09:57:03.840Z,90.52
2022-08-18T09:58:03.822Z,90.37
2022-08-18T09:59:10.804Z,90.67
2022-08-18T10:00:05.081Z,90.37
2022-08-18T10:01:03.836Z,88.68
2022-08-18T10:02:03.781Z,81.81
2022-08-18T10:03:03.769Z,74.27
2022-08-18T10:04:03.759Z,72.99
2022-08-18T10:05:03.747Z,64.83
2022-08-18T10:06:03.786Z,61.89
2022-08-18T10:07:03.776Z,61.85
2022-08-18T10:08:03.954Z,61.81
2022-08-18T10:09:17.781Z,64.86
2022-08-18T10:10:12.941Z,69.84
2022-08-18T10:11:09.357Z,73.52
2022-08-18T10:12:03.696Z,76.42
2022-08-18T10:13:03.663Z,75.89
2022-08-18T10:14:03.659Z,75.40
2022-08-18T10:15:03.686Z,78.19
2022-08-18T10:16:05.391Z,81.13
2022-08-18T10:17:21.606Z,83.74
2022-08-18T10:18:04.789Z,85.61
2022-08-18T10:19:03.651Z,87.63
2022-08-18T10:20:03.599Z,89.01
2022-08-18T10:21:03.591Z,89.95
2022-08-18T10:22:03.581Z,89.89
2022-08-18T10:23:03.565Z,88.71
2022-08-18T10:25:22.245Z,90.33
2022-08-18T10:26:06.163Z,88.74
2022-08-18T10:27:04.546Z,85.11
2022-08-18T10:28:03.509Z,89.17
2022-08-18T10:29:03.500Z,87.63
2022-08-18T10:30:03.506Z,89.57
2022-08-18T10:31:05.787Z,88.98
2022-08-18T10:32:03.470Z,88.44
2022-08-18T10:33:17.290Z,90.47
2022-08-18T10:34:16.046Z,90.14
2022-08-18T10:35:04.466Z,89.99
2022-08-18T10:36:03.430Z,90.09
2022-08-18T10:37:06.362Z,89.12
2022-08-18T10:38:03.407Z,88.48
2022-08-18T10:39:03.395Z,85.75
2022-08-18T10:40:03.448Z,86.31
2022-08-18T10:41:09.832Z,83.15
2022-08-18T10:42:04.394Z,83.68
2022-08-18T10:43:14.982Z,82.69
2022-08-18T10:44:20.769Z,79.49
2022-08-18T10:45:06.548Z,80.05
2022-08-18T10:46:25.358Z,76.46
2022-08-18T10:47:04.344Z,80.44
2022-08-18T10:48:03.308Z,78.63
2022-08-18T10:49:04.386Z,74.28
2022-08-18T10:50:03.309Z,66.46
2022-08-18T10:51:03.272Z,61.88
2022-08-18T10:52:03.266Z,59.39
2022-08-18T10:53:23.867Z,59.44
2022-08-18T10:54:04.353Z,57.25
2022-08-18T10:55:03.255Z,55.98
2022-08-18T10:56:05.130Z,55.66
2022-08-18T10:57:03.212Z,56.15
2022-08-18T10:58:03.204Z,56.30
2022-08-18T10:59:03.194Z,57.40
2022-08-18T11:00:03.188Z,62.24
2022-08-18T11:01:03.424Z,62.05
2022-08-18T11:02:03.167Z,59.70
2022-08-18T11:03:29.858Z,57.49
2022-08-18T11:04:13.827Z,55.80
2022-08-18T11:05:05.133Z,58.75
2022-08-18T11:06:03.137Z,59.84
2022-08-18T11:07:03.133Z,64.76
2022-08-18T11:08:03.109Z,71.00
2022-08-18T11:09:04.123Z,80.22
2022-08-18T11:11:34.122Z,88.21
2022-08-18T11:12:04.089Z,88.81
2022-08-18T11:14:04.118Z,88.95
2022-08-18T11:15:22.642Z,89.54
2022-08-18T11:16:04.059Z,89.34
2022-08-18T11:17:04.046Z,87.72
2022-08-18T11:18:03.007Z,79.49
2022-08-18T11:19:02.994Z,78.50
2022-08-18T11:20:02.990Z,79.59
2022-08-18T11:21:02.971Z,78.56
2022-08-18T11:22:04.012Z,78.90
2022-08-18T11:23:03.994Z,75.01
2022-08-18T11:24:02.941Z,72.41
2022-08-18T11:25:03.596Z,71.23
2022-08-18T11:26:02.919Z,72.28
2022-08-18T11:27:03.232Z,74.65
2022-08-18T11:28:02.983Z,76.63
2022-08-18T11:29:02.918Z,78.70
2022-08-18T11:30:02.875Z,76.82
2022-08-18T11:31:02.870Z,79.24
2022-08-18T11:32:03.993Z,82.10
2022-08-18T11:33:03.518Z,82.20
2022-08-18T11:34:02.829Z,78.94
2022-08-18T11:35:02.822Z,81.74
2022-08-18T11:36:02.822Z,84.65
2022-08-18T11:37:02.800Z,86.25
2022-08-18T11:38:02.790Z,83.03
2022-08-18T11:39:02.797Z,85.84
2022-08-18T11:40:02.972Z,88.11
2022-08-18T11:41:10.992Z,86.24
2022-08-18T11:42:03.849Z,86.33
2022-08-18T11:43:02.741Z,87.66
2022-08-18T11:44:02.732Z,88.55
2022-08-18T11:45:02.851Z,88.55
2022-08-18T11:46:03.343Z,88.15
2022-08-18T11:47:02.699Z,87.76
2022-08-18T11:48:02.686Z,88.01
2022-08-18T11:49:02.676Z,87.23
2022-08-18T11:50:04.386Z,85.60
2022-08-18T11:51:02.876Z,84.91
2022-08-18T11:52:03.025Z,86.25
2022-08-18T11:53:02.631Z,84.83
2022-08-18T11:54:02.625Z,80.05
2022-08-18T11:55:02.615Z,77.78
2022-08-18T11:56:03.628Z,76.85
2022-08-18T11:57:02.595Z,73.66
2022-08-18T11:58:02.583Z,71.23
2022-08-18T11:59:02.603Z,71.56
2022-08-18T12:00:02.571Z,71.82
2022-08-18T12:01:03.216Z,72.28
2022-08-18T12:02:02.546Z,72.05
2022-08-18T12:03:02.591Z,68.76
2022-08-18T12:04:02.552Z,71.85
2022-08-18T12:05:03.096Z,71.19
2022-08-18T12:06:02.503Z,76.35
2022-08-18T12:07:04.553Z,77.34
2022-08-18T12:08:06.348Z,78.77
2022-08-18T12:09:03.493Z,76.95
2022-08-18T12:10:17.837Z,76.85
2022-08-18T12:11:03.510Z,74.68
2022-08-18T12:12:03.462Z,78.96
2022-08-18T12:13:02.428Z,77.78
2022-08-18T12:14:29.597Z,80.52
2022-08-18T12:16:03.433Z,83.29
2022-08-18T12:17:02.434Z,82.06
2022-08-18T12:18:02.391Z,82.50
2022-08-18T12:19:03.102Z,82.65
2022-08-18T12:20:02.362Z,76.26
2022-08-18T12:21:02.834Z,65.25
2022-08-18T12:22:09.347Z,61.42
2022-08-18T12:23:03.441Z,60.80
2022-08-18T12:24:02.319Z,59.27
2022-08-18T12:25:02.309Z,56.96
2022-08-18T12:26:02.299Z,55.26
2022-08-18T12:27:02.437Z,58.09
2022-08-18T12:28:02.311Z,60.34
2022-08-18T12:29:02.312Z,62.01
2022-08-18T12:30:02.255Z,63.74
2022-08-18T12:31:02.246Z,64.73
2022-08-18T12:32:02.237Z,66.07
2022-08-18T12:34:03.263Z,69.29
2022-08-18T12:35:07.863Z,70.80
2022-08-18T12:36:04.107Z,75.27
2022-08-18T12:37:02.185Z,74.19
2022-08-18T12:38:12.535Z,75.96
2022-08-18T12:39:02.170Z,74.98
2022-08-18T12:40:02.261Z,75.14
2022-08-18T12:41:03.106Z,74.98
2022-08-18T12:42:02.201Z,66.79
2022-08-18T12:43:02.138Z,62.96
2022-08-18T12:44:02.118Z,62.63
2022-08-18T12:45:02.110Z,62.66
2022-08-18T12:46:02.094Z,65.67
2022-08-18T12:47:02.085Z,69.06
2022-08-18T12:48:02.077Z,68.37
2022-08-18T12:49:02.063Z,71.19
2022-08-18T12:50:02.054Z,69.55
2022-08-18T12:51:02.041Z,69.06
2022-08-18T12:53:04.032Z,70.24
2022-08-18T12:54:02.057Z,66.99
2022-08-18T12:55:02.008Z,68.66
2022-08-18T12:56:01.998Z,66.79
2022-08-18T12:57:01.979Z,68.66
2022-08-18T12:58:01.974Z,68.89
2022-08-18T12:59:04.168Z,69.78
2022-08-18T13:00:01.955Z,71.39
2022-08-18T13:01:01.994Z,74.74